Time;durP1;ratioP1;P1;durP2;ratioP2;P2;SDS_P1;SDS_P2;PMS_P1;PMS_P2;Temp;Humidity;BMP_temperature;BMP_pressure;BME280_temperature;BME280_humidity;BME280_pressure;Samples;Min_cycle;Max_cycle;Signal;HPM_P1;HPM_P2
2022/09/19 00:02:23;;;;;;;8.27;3.10;;;;;;;;;;5031107;28;20429;-45
2022/09/19 00:04:49;;;;;;;5.80;2.70;;;;;;;;;;5029700;28;20759;-44
2022/09/19 00:07:15;;;;;;;19.43;3.23;;;;;;;;;;5047941;28;20448;-47
2022/09/19 00:09:41;;;;;;;8.80;3.10;;;;;;;;;;5050282;28;20774;-43
2022/09/19 00:12:07;;;;;;;9.60;2.87;;;;;;;;;;5035662;28;20421;-43
2022/09/19 00:14:35;;;;;;;5.50;3.23;;;;;;;;;;5031069;28;20413;-43
2022/09/19 00:17:02;;;;;;;10.43;3.03;;;;;;;;;;5044861;28;20516;-43
2022/09/19 00:19:28;;;;;;;8.80;2.90;;;;;;;;;;5049978;28;20982;-47
2022/09/19 00:21:56;;;;;;;10.30;3.20;;;;;;;;;;5038239;28;20417;-46
2022/09/19 00:27:07;;;;;;;9.20;3.00;;;;;;;;;;5044147;28;20441;-46
2022/09/19 00:29:34;;;;;;;13.83;4.43;;;;;;;;;;5050114;28;20966;-45
2022/09/19 00:32:00;;;;;;;13.53;3.70;;;;;;;;;;5038503;28;20421;-43
2022/09/19 00:34:26;;;;;;;22.73;3.47;;;;;;;;;;5032011;28;20409;-44
2022/09/19 00:36:53;;;;;;;12.23;3.30;;;;;;;;;;5044623;28;20444;-44
2022/09/19 00:39:19;;;;;;;13.33;3.47;;;;;;;;;;5053953;28;20451;-43
2022/09/19 00:41:46;;;;;;;11.10;2.87;;;;;;;;;;5046580;28;20841;-43
2022/09/19 00:44:24;;;;;;;6.97;3.20;;;;;;;;;;5046498;28;20403;-45
2022/09/19 00:46:52;;;;;;;8.33;3.17;;;;;;;;;;5034005;28;20414;-45
2022/09/19 00:49:18;;;;;;;11.37;2.80;;;;;;;;;;5034076;28;20410;-46
2022/09/19 00:51:47;;;;;;;8.03;2.80;;;;;;;;;;5040937;28;20425;-46
2022/09/19 00:54:17;;;;;;;9.00;2.80;;;;;;;;;;5054319;28;20463;-46
2022/09/19 00:56:45;;;;;;;9.40;2.50;;;;;;;;;;5046975;28;20459;-46
2022/09/19 00:59:11;;;;;;;7.20;2.77;;;;;;;;;;5033568;28;20507;-45
2022/09/19 01:01:38;;;;;;;7.47;3.00;;;;;;;;;;5037612;28;20983;-45
2022/09/19 01:04:14;;;;;;;10.87;2.67;;;;;;;;;;5052193;28;20417;-46
2022/09/19 01:06:55;;;;;;;21.53;3.17;;;;;;;;;;5048061;28;20429;-46
2022/09/19 01:09:39;;;;;;;13.13;2.80;;;;;;;;;;5034037;28;20560;-46
2022/09/19 01:12:22;;;;;;;7.47;3.17;;;;;;;;;;5040799;28;20792;-46
2022/09/19 01:15:07;;;;;;;9.33;2.50;;;;;;;;;;5053089;28;20556;-46
2022/09/19 01:17:42;;;;;;;14.80;2.63;;;;;;;;;;5042149;28;20433;-46
2022/09/19 01:20:28;;;;;;;8.57;2.40;;;;;;;;;;5032591;28;20457;-46
2022/09/19 01:22:54;;;;;;;14.90;2.87;;;;;;;;;;5032247;28;20422;-46
2022/09/19 01:25:26;;;;;;;11.07;2.40;;;;;;;;;;5033104;28;20485;-45
2022/09/19 01:27:52;;;;;;;5.80;2.60;;;;;;;;;;5044589;28;20974;-45
2022/09/19 01:30:18;;;;;;;14.90;3.17;;;;;;;;;;5052111;28;20965;-45
2022/09/19 01:32:51;;;;;;;8.10;3.67;;;;;;;;;;5042888;28;21012;-45
2022/09/19 01:35:20;;;;;;;10.83;2.90;;;;;;;;;;5032982;28;20415;-45
2022/09/19 01:37:50;;;;;;;6.20;2.33;;;;;;;;;;5041990;28;20467;-45
2022/09/19 01:40:17;;;;;;;7.53;2.80;;;;;;;;;;5052131;28;20472;-45
2022/09/19 01:42:55;;;;;;;13.23;2.80;;;;;;;;;;5043686;28;20937;-46
2022/09/19 01:45:36;;;;;;;15.73;2.27;;;;;;;;;;5032427;28;20457;-46
2022/09/19 01:48:07;;;;;;;12.67;3.47;;;;;;;;;;5042794;28;20444;-46
2022/09/19 01:50:48;;;;;;;12.53;2.60;;;;;;;;;;5051780;28;20890;-46
2022/09/19 01:53:32;;;;;;;13.50;2.30;;;;;;;;;;5040864;28;20429;-46
2022/09/19 01:56:09;;;;;;;16.07;3.50;;;;;;;;;;5032248;28;20479;-45
2022/09/19 01:58:35;;;;;;;12.83;3.47;;;;;;;;;;5045396;28;20419;-46
2022/09/19 02:01:26;;;;;;;11.43;3.30;;;;;;;;;;5052118;28;21187;-46
2022/09/19 02:04:02;;;;;;;7.97;2.67;;;;;;;;;;5030626;28;20430;-46
2022/09/19 02:06:31;;;;;;;10.10;3.70;;;;;;;;;;5031986;28;20410;-46
2022/09/19 02:09:03;;;;;;;11.33;2.63;;;;;;;;;;5046715;28;20466;-46
2022/09/19 02:11:30;;;;;;;6.53;2.13;;;;;;;;;;5051739;28;20409;-46
2022/09/19 02:14:02;;;;;;;17.97;2.80;;;;;;;;;;5037321;28;20459;-46
2022/09/19 02:16:33;;;;;;;12.57;2.53;;;;;;;;;;5031954;28;20424;-45
2022/09/19 02:19:02;;;;;;;19.20;3.60;;;;;;;;;;5045679;28;20464;-45
2022/09/19 02:21:37;;;;;;;19.30;3.00;;;;;;;;;;5051699;28;20403;-46
2022/09/19 02:24:06;;;;;;;8.27;3.20;;;;;;;;;;5037768;28;20429;-46
2022/09/19 02:26:33;;;;;;;8.67;2.83;;;;;;;;;;5031370;28;20463;-46
2022/09/19 02:29:00;;;;;;;8.70;2.73;;;;;;;;;;5044202;28;20421;-46
2022/09/19 02:31:27;;;;;;;11.27;3.43;;;;;;;;;;5051711;28;20835;-45
2022/09/19 02:33:54;;;;;;;20.77;3.30;;;;;;;;;;5040144;28;20424;-46
2022/09/19 02:36:35;;;;;;;9.47;2.73;;;;;;;;;;5031707;28;20422;-46
2022/09/19 02:39:04;;;;;;;9.60;2.67;;;;;;;;;;5042588;28;20503;-46
2022/09/19 02:41:36;;;;;;;7.10;2.57;;;;;;;;;;5051063;28;20789;-46
2022/09/19 02:44:14;;;;;;;13.77;3.40;;;;;;;;;;5040264;28;20425;-46
2022/09/19 02:46:48;;;;;;;11.03;3.67;;;;;;;;;;5031407;28;21044;-46
2022/09/19 02:49:19;;;;;;;21.40;3.90;;;;;;;;;;5043572;28;20419;-46
2022/09/19 02:51:51;;;;;;;11.47;3.37;;;;;;;;;;5051045;28;20586;-46
2022/09/19 02:54:20;;;;;;;9.27;3.20;;;;;;;;;;5039542;28;20507;-45
2022/09/19 02:56:47;;;;;;;6.50;2.63;;;;;;;;;;5031060;28;20512;-46
2022/09/19 02:59:18;;;;;;;14.37;2.60;;;;;;;;;;5039438;28;20468;-46
2022/09/19 03:01:47;;;;;;;13.10;2.80;;;;;;;;;;5050459;28;20504;-46
2022/09/19 03:04:16;;;;;;;19.37;3.50;;;;;;;;;;5050522;28;20450;-46
2022/09/19 03:06:52;;;;;;;18.57;3.23;;;;;;;;;;5051026;28;20757;-46
2022/09/19 03:09:20;;;;;;;17.60;3.20;;;;;;;;;;5040633;28;20961;-46
2022/09/19 03:11:49;;;;;;;16.13;3.00;;;;;;;;;;5034018;28;20429;-46
2022/09/19 03:14:16;;;;;;;13.90;3.43;;;;;;;;;;5051289;28;20746;-46
2022/09/19 03:16:47;;;;;;;9.37;3.50;;;;;;;;;;5048590;28;20943;-46
2022/09/19 03:19:13;;;;;;;5.87;2.70;;;;;;;;;;5030659;28;20461;-47
2022/09/19 03:21:41;;;;;;;10.30;2.87;;;;;;;;;;5031402;28;20501;-46
2022/09/19 03:24:07;;;;;;;15.73;3.00;;;;;;;;;;5051375;28;20845;-46
2022/09/19 03:26:35;;;;;;;19.30;3.27;;;;;;;;;;5050877;28;20423;-46
2022/09/19 03:29:02;;;;;;;20.17;3.57;;;;;;;;;;5030615;28;20425;-46
2022/09/19 03:31:28;;;;;;;3.47;2.27;;;;;;;;;;5030882;28;20922;-46
2022/09/19 03:33:58;;;;;;;7.63;2.47;;;;;;;;;;5049283;28;20419;-46
2022/09/19 03:36:25;;;;;;;14.40;3.63;;;;;;;;;;5051071;28;20443;-46
2022/09/19 03:38:51;;;;;;;16.77;2.93;;;;;;;;;;5032584;28;20973;-46
2022/09/19 03:41:19;;;;;;;14.97;3.30;;;;;;;;;;5030882;28;20490;-46
2022/09/19 03:43:45;;;;;;;8.73;3.03;;;;;;;;;;5046397;28;20480;-46
2022/09/19 03:46:12;;;;;;;8.67;2.57;;;;;;;;;;5051016;28;20978;-46
2022/09/19 03:48:38;;;;;;;17.77;2.83;;;;;;;;;;5035624;28;20432;-46
2022/09/19 03:51:04;;;;;;;17.57;3.83;;;;;;;;;;5030860;28;20448;-46
2022/09/19 03:53:30;;;;;;;23.37;3.50;;;;;;;;;;5043587;28;20413;-46
2022/09/19 03:55:57;;;;;;;15.17;3.20;;;;;;;;;;5051331;28;20416;-46
2022/09/19 03:58:23;;;;;;;7.07;3.23;;;;;;;;;;5039439;28;20492;-46
2022/09/19 04:00:50;;;;;;;15.80;4.10;;;;;;;;;;5039229;28;20590;-46
2022/09/19 04:03:18;;;;;;;9.47;3.00;;;;;;;;;;5050519;28;20444;-46
2022/09/19 04:05:44;;;;;;;14.27;4.70;;;;;;;;;;5042453;28;20472;-46
2022/09/19 04:08:10;;;;;;;13.87;2.77;;;;;;;;;;5030186;28;20398;-46
2022/09/19 04:10:36;;;;;;;10.03;3.30;;;;;;;;;;5040098;28;20417;-46
2022/09/19 04:13:02;;;;;;;5.80;2.60;;;;;;;;;;5054177;28;20801;-46
2022/09/19 04:15:28;;;;;;;17.37;3.40;;;;;;;;;;5049507;28;20960;-46
2022/09/19 04:17:54;;;;;;;9.10;2.57;;;;;;;;;;5034291;28;20436;-46
2022/09/19 04:20:24;;;;;;;13.73;3.03;;;;;;;;;;5036063;28;20452;-46
2022/09/19 04:22:50;;;;;;;8.43;3.37;;;;;;;;;;5052759;28;20483;-46
2022/09/19 04:25:16;;;;;;;22.43;3.80;;;;;;;;;;5052422;28;20402;-46
2022/09/19 04:27:44;;;;;;;18.33;3.20;;;;;;;;;;5034295;28;20612;-45
2022/09/19 04:30:10;;;;;;;8.60;3.10;;;;;;;;;;5034010;28;20489;-46
2022/09/19 04:32:39;;;;;;;16.67;4.07;;;;;;;;;;5054649;28;21108;-46
2022/09/19 04:35:05;;;;;;;15.37;3.27;;;;;;;;;;5054666;28;20412;-46
2022/09/19 04:37:31;;;;;;;8.13;3.17;;;;;;;;;;5034842;28;20445;-46
2022/09/19 04:39:57;;;;;;;14.03;3.17;;;;;;;;;;5033471;28;20457;-46
2022/09/19 04:42:23;;;;;;;8.53;3.10;;;;;;;;;;5051973;28;20424;-46
2022/09/19 04:44:53;;;;;;;11.30;2.97;;;;;;;;;;5054359;28;20480;-46
2022/09/19 04:47:20;;;;;;;16.77;3.00;;;;;;;;;;5041296;28;20484;-46
2022/09/19 04:49:46;;;;;;;12.63;2.73;;;;;;;;;;5052992;28;20429;-46
2022/09/19 04:52:12;;;;;;;6.80;2.70;;;;;;;;;;5054313;28;20913;-46
2022/09/19 04:54:38;;;;;;;12.70;3.20;;;;;;;;;;5053428;28;20431;-46
2022/09/19 04:57:05;;;;;;;8.17;3.20;;;;;;;;;;5053809;28;20421;-46
2022/09/19 04:59:32;;;;;;;11.40;3.47;;;;;;;;;;5051518;28;20577;-46
2022/09/19 05:01:58;;;;;;;9.33;3.17;;;;;;;;;;5053665;28;20504;-46
2022/09/19 05:04:25;;;;;;;12.43;3.50;;;;;;;;;;5042948;28;20421;-46
2022/09/19 05:06:51;;;;;;;13.60;3.10;;;;;;;;;;5034047;28;20441;-46
2022/09/19 05:09:17;;;;;;;8.10;2.80;;;;;;;;;;5042373;28;20909;-46
2022/09/19 05:11:46;;;;;;;8.13;2.77;;;;;;;;;;5053506;28;20416;-46
2022/09/19 05:14:15;;;;;;;13.23;3.40;;;;;;;;;;5045372;28;20761;-46
2022/09/19 05:16:41;;;;;;;13.30;3.60;;;;;;;;;;5033948;28;20459;-46
2022/09/19 05:19:08;;;;;;;16.00;2.70;;;;;;;;;;5040077;28;20452;-46
2022/09/19 05:21:34;;;;;;;11.30;3.13;;;;;;;;;;5052414;28;20912;-46
2022/09/19 05:24:01;;;;;;;13.07;2.90;;;;;;;;;;5047476;28;20417;-46
2022/09/19 05:26:27;;;;;;;8.80;3.20;;;;;;;;;;5032063;28;20861;-46
2022/09/19 05:28:53;;;;;;;9.03;2.50;;;;;;;;;;5036688;28;20437;-46
2022/09/19 05:31:20;;;;;;;7.80;2.93;;;;;;;;;;5052765;28;20417;-46
2022/09/19 05:33:49;;;;;;;15.53;3.40;;;;;;;;;;5051032;28;20408;-46
2022/09/19 05:36:15;;;;;;;14.23;3.50;;;;;;;;;;5038564;28;20884;-46
2022/09/19 05:38:41;;;;;;;16.87;3.57;;;;;;;;;;5051848;28;20970;-46
2022/09/19 05:41:07;;;;;;;8.50;2.97;;;;;;;;;;5033513;28;20418;-46
2022/09/19 05:43:33;;;;;;;16.77;2.93;;;;;;;;;;5033376;28;20454;-46
2022/09/19 05:46:00;;;;;;;8.90;3.03;;;;;;;;;;5033548;28;20422;-46
2022/09/19 05:48:26;;;;;;;12.23;3.37;;;;;;;;;;5033005;28;20452;-46
2022/09/19 05:50:53;;;;;;;9.87;3.70;;;;;;;;;;5050113;28;20413;-46
2022/09/19 05:56:04;;;;;;;8.63;4.20;;;;;;;;;;5033736;28;20468;-46
2022/09/19 05:58:31;;;;;;;5.27;2.97;;;;;;;;;;5032899;28;20419;-46
2022/09/19 06:00:57;;;;;;;6.50;2.20;;;;;;;;;;5049473;28;20479;-46
2022/09/19 06:03:23;;;;;;;7.90;2.70;;;;;;;;;;5052712;28;20464;-46
2022/09/19 06:05:50;;;;;;;16.67;3.37;;;;;;;;;;5036783;28;20426;-46
2022/09/19 06:08:17;;;;;;;8.07;2.73;;;;;;;;;;5033077;28;20441;-46
2022/09/19 06:10:44;;;;;;;16.00;2.90;;;;;;;;;;5046146;28;20420;-46
2022/09/19 06:13:18;;;;;;;16.37;3.47;;;;;;;;;;5052882;28;20897;-46
2022/09/19 06:15:44;;;;;;;14.30;2.33;;;;;;;;;;5038247;28;20497;-46
2022/09/19 06:18:11;;;;;;;8.30;4.00;;;;;;;;;;5032800;28;20406;-45
2022/09/19 06:20:37;;;;;;;12.47;3.67;;;;;;;;;;5043953;28;21076;-46
2022/09/19 06:23:04;;;;;;;13.53;5.10;;;;;;;;;;5052426;28;20484;-46
2022/09/19 06:25:30;;;;;;;10.83;3.30;;;;;;;;;;5041954;28;20795;-46
2022/09/19 06:27:57;;;;;;;8.77;2.77;;;;;;;;;;5032527;28;20446;-46
2022/09/19 06:30:23;;;;;;;16.03;3.30;;;;;;;;;;5036370;28;20428;-46
2022/09/19 06:32:50;;;;;;;12.13;3.40;;;;;;;;;;5051412;28;20924;-46
2022/09/19 06:35:17;;;;;;;20.43;5.10;;;;;;;;;;5037674;28;20991;-46
2022/09/19 06:37:43;;;;;;;9.17;3.37;;;;;;;;;;5042528;28;20536;-45
2022/09/19 06:40:10;;;;;;;14.17;3.00;;;;;;;;;;5046264;28;20551;-46
2022/09/19 06:42:36;;;;;;;9.50;3.17;;;;;;;;;;5034996;28;20414;-46
2022/09/19 06:45:06;;;;;;;11.93;3.27;;;;;;;;;;5052004;28;20504;-46
2022/09/19 06:47:32;;;;;;;8.80;3.53;;;;;;;;;;5042380;28;20445;-45
2022/09/19 06:50:00;;;;;;;10.37;3.77;;;;;;;;;;5032176;28;20472;-45
2022/09/19 06:52:25;;;;;;;14.70;3.40;;;;;;;;;;5031670;28;20485;-45
2022/09/19 06:54:51;;;;;;;16.60;3.23;;;;;;;;;;5032843;28;20508;-45
2022/09/19 06:57:17;;;;;;;13.60;4.27;;;;;;;;;;5032279;28;20473;-45
2022/09/19 06:59:43;;;;;;;12.33;3.53;;;;;;;;;;5046794;28;20587;-46
2022/09/19 07:02:11;;;;;;;16.40;3.70;;;;;;;;;;5031661;28;20423;-45
2022/09/19 07:04:39;;;;;;;12.07;3.37;;;;;;;;;;5035858;28;20422;-45
2022/09/19 07:07:05;;;;;;;9.27;3.23;;;;;;;;;;5043835;28;20578;-45
2022/09/19 07:09:31;;;;;;;21.70;4.17;;;;;;;;;;5050479;28;20441;-45
2022/09/19 07:11:57;;;;;;;10.80;2.87;;;;;;;;;;5031194;28;20446;-45
2022/09/19 07:14:24;;;;;;;17.87;4.20;;;;;;;;;;5036555;28;20413;-45
2022/09/19 07:16:50;;;;;;;5.60;2.83;;;;;;;;;;5051157;28;20452;-45
2022/09/19 07:19:17;;;;;;;12.33;3.40;;;;;;;;;;5036795;28;21175;-45
2022/09/19 07:21:43;;;;;;;15.80;3.00;;;;;;;;;;5040638;28;20480;-46
2022/09/19 07:24:09;;;;;;;15.47;2.83;;;;;;;;;;5051370;28;20486;-45
2022/09/19 07:26:35;;;;;;;14.77;3.33;;;;;;;;;;5048358;28;20791;-45
2022/09/19 07:29:00;;;;;;;12.20;4.30;;;;;;;;;;5049416;28;20425;-46
2022/09/19 07:31:27;;;;;;;18.27;3.40;;;;;;;;;;5031440;28;20953;-45
2022/09/19 07:33:53;;;;;;;9.30;2.87;;;;;;;;;;5032454;28;20437;-46
2022/09/19 07:36:23;;;;;;;14.17;3.33;;;;;;;;;;5044378;28;20936;-46
2022/09/19 07:38:49;;;;;;;17.23;5.10;;;;;;;;;;5051018;28;20410;-46
2022/09/19 07:41:16;;;;;;;13.40;3.27;;;;;;;;;;5048771;28;20489;-45
2022/09/19 07:43:42;;;;;;;9.47;3.47;;;;;;;;;;5050811;28;20418;-45
2022/09/19 07:46:08;;;;;;;14.00;3.27;;;;;;;;;;5037495;28;20443;-46
2022/09/19 07:48:34;;;;;;;11.57;3.20;;;;;;;;;;5034972;28;20412;-46
2022/09/19 07:51:02;;;;;;;17.90;2.80;;;;;;;;;;5041749;28;20417;-45
2022/09/19 07:53:29;;;;;;;8.00;2.87;;;;;;;;;;5056121;28;20550;-45
2022/09/19 07:55:56;;;;;;;14.00;3.00;;;;;;;;;;5054593;28;20488;-45
2022/09/19 07:58:23;;;;;;;9.10;3.27;;;;;;;;;;5051940;28;20420;-45
2022/09/19 08:00:50;;;;;;;8.17;3.07;;;;;;;;;;5042083;28;20466;-46
2022/09/19 08:03:17;;;;;;;12.20;3.17;;;;;;;;;;5042661;28;20430;-46
2022/09/19 08:05:45;;;;;;;16.90;4.20;;;;;;;;;;5046249;28;20420;-46
2022/09/19 08:08:12;;;;;;;6.03;2.70;;;;;;;;;;5035013;28;20416;-45
2022/09/19 08:10:39;;;;;;;9.43;3.00;;;;;;;;;;5038766;28;20441;-45
2022/09/19 08:13:06;;;;;;;12.80;2.40;;;;;;;;;;5039447;28;20417;-45
2022/09/19 08:15:33;;;;;;;10.33;2.70;;;;;;;;;;5040428;28;20583;-46
2022/09/19 08:18:00;;;;;;;14.20;2.30;;;;;;;;;;5054679;28;20498;-46
2022/09/19 08:20:27;;;;;;;6.63;2.87;;;;;;;;;;5053936;28;20552;-45
2022/09/19 08:22:56;;;;;;;9.53;2.77;;;;;;;;;;5052649;28;20429;-46
2022/09/19 08:25:23;;;;;;;11.40;2.43;;;;;;;;;;5054818;28;20914;-46
2022/09/19 08:27:50;;;;;;;9.10;1.77;;;;;;;;;;5036124;28;20437;-45
2022/09/19 08:30:17;;;;;;;7.53;1.80;;;;;;;;;;5034127;28;20469;-46
2022/09/19 08:32:44;;;;;;;4.43;1.70;;;;;;;;;;5051126;28;20450;-48
2022/09/19 08:35:10;;;;;;;17.00;3.53;;;;;;;;;;5054523;28;20410;-46
2022/09/19 08:37:36;;;;;;;6.10;1.63;;;;;;;;;;5041221;28;20438;-48
2022/09/19 08:40:19;;;;;;;5.93;2.03;;;;;;;;;;5037612;28;20544;-47
2022/09/19 08:43:03;;;;;;;3.10;1.90;;;;;;;;;;5034141;28;20418;-48
2022/09/19 08:45:36;;;;;;;5.20;2.03;;;;;;;;;;5048453;28;20507;-48
2022/09/19 08:48:05;;;;;;;6.60;1.53;;;;;;;;;;5054604;28;20908;-46
2022/09/19 08:50:33;;;;;;;10.20;2.40;;;;;;;;;;5043036;28;20791;-47
2022/09/19 08:53:01;;;;;;;9.20;2.30;;;;;;;;;;5051744;28;20949;-47
2022/09/19 08:55:29;;;;;;;8.93;2.17;;;;;;;;;;5053280;28;20468;-46
2022/09/19 08:57:58;;;;;;;3.40;1.90;;;;;;;;;;5053801;28;20426;-47
2022/09/19 09:00:24;;;;;;;5.07;1.90;;;;;;;;;;5052268;28;20815;-47
2022/09/19 09:02:56;;;;;;;6.47;1.83;;;;;;;;;;5053025;28;20431;-47
2022/09/19 09:05:44;;;;;;;12.20;1.90;;;;;;;;;;5052859;28;20440;-46
2022/09/19 09:08:25;;;;;;;5.63;1.87;;;;;;;;;;5046088;28;20437;-46
2022/09/19 09:10:55;;;;;;;6.03;1.80;;;;;;;;;;5048112;28;20460;-47
2022/09/19 09:13:23;;;;;;;9.07;1.70;;;;;;;;;;5053638;28;20896;-46
2022/09/19 09:16:08;;;;;;;3.57;1.30;;;;;;;;;;5053270;28;20413;-47
2022/09/19 09:18:52;;;;;;;9.80;2.20;;;;;;;;;;5054619;28;20429;-47
2022/09/19 09:21:30;;;;;;;8.67;2.30;;;;;;;;;;5042979;28;20835;-46
2022/09/19 09:24:03;;;;;;;8.03;1.93;;;;;;;;;;5032722;28;20464;-46
2022/09/19 09:26:36;;;;;;;10.07;1.70;;;;;;;;;;5051209;28;20948;-46
2022/09/19 09:29:27;;;;;;;7.20;1.73;;;;;;;;;;5053666;28;20482;-46
2022/09/19 09:31:57;;;;;;;13.47;2.20;;;;;;;;;;5047837;28;20505;-45
2022/09/19 09:34:28;;;;;;;4.70;1.80;;;;;;;;;;5033788;28;20391;-47
2022/09/19 09:36:57;;;;;;;8.07;1.60;;;;;;;;;;5034389;28;20461;-46
2022/09/19 09:39:59;;;;;;;6.27;1.70;;;;;;;;;;5049384;28;20453;-46
2022/09/19 09:42:28;;;;;;;3.80;2.10;;;;;;;;;;5034871;28;20772;-47
2022/09/19 09:44:58;;;;;;;7.40;1.60;;;;;;;;;;5052383;28;20459;-46
2022/09/19 09:47:28;;;;;;;10.27;1.83;;;;;;;;;;5038874;28;20466;-46
2022/09/19 09:50:04;;;;;;;6.50;1.80;;;;;;;;;;5032102;28;20403;-45
2022/09/19 09:52:50;;;;;;;4.00;1.90;;;;;;;;;;5046349;28;20447;-46
2022/09/19 09:58:39;;;;;;;3.67;1.87;;;;;;;;;;5041649;28;20408;-47
2022/09/19 10:04:06;;;;;;;8.17;1.67;;;;;;;;;;5033134;28;20439;-46
2022/09/19 10:06:38;;;;;;;6.70;1.57;;;;;;;;;;5052599;28;20855;-46
2022/09/19 10:09:10;;;;;;;7.17;1.80;;;;;;;;;;5051384;28;20824;-47
2022/09/19 10:11:42;;;;;;;5.30;1.70;;;;;;;;;;5032338;28;20427;-46
2022/09/19 10:14:19;;;;;;;2.73;1.80;;;;;;;;;;5034732;28;20919;-45
2022/09/19 10:16:48;;;;;;;3.07;1.70;;;;;;;;;;5049132;28;20440;-46
2022/09/19 10:19:29;;;;;;;10.00;2.13;;;;;;;;;;5043029;28;20481;-43
2022/09/19 10:21:56;;;;;;;4.70;1.90;;;;;;;;;;5032239;28;20469;-45
2022/09/19 10:24:41;;;;;;;6.13;1.90;;;;;;;;;;5041255;28;20383;-45
2022/09/19 10:27:23;;;;;;;3.63;1.47;;;;;;;;;;5052273;28;20405;-47
2022/09/19 10:30:00;;;;;;;7.37;2.20;;;;;;;;;;5039498;28;20877;-45
2022/09/19 10:32:37;;;;;;;7.67;1.97;;;;;;;;;;5031130;28;20417;-44
2022/09/19 10:35:28;;;;;;;6.40;2.07;;;;;;;;;;5032832;28;20414;-43
2022/09/19 10:37:59;;;;;;;7.03;2.23;;;;;;;;;;5032002;28;20441;-46
2022/09/19 10:40:25;;;;;;;7.80;1.90;;;;;;;;;;5046534;28;20570;-44
2022/09/19 10:42:54;;;;;;;3.53;1.53;;;;;;;;;;5052339;28;20757;-43
2022/09/19 10:45:25;;;;;;;7.57;2.23;;;;;;;;;;5050187;28;20827;-44
2022/09/19 10:47:53;;;;;;;5.83;1.80;;;;;;;;;;5051897;28;21016;-44
2022/09/19 10:50:19;;;;;;;3.77;1.77;;;;;;;;;;5037401;28;20419;-45
2022/09/19 10:52:46;;;;;;;5.20;2.00;;;;;;;;;;5032052;28;20939;-45
2022/09/19 10:55:14;;;;;;;6.50;1.70;;;;;;;;;;5043687;28;20492;-44
2022/09/19 10:57:49;;;;;;;8.43;2.00;;;;;;;;;;5051802;28;20428;-44
2022/09/19 11:00:31;;;;;;;4.67;1.40;;;;;;;;;;5051791;28;20521;-46
2022/09/19 11:03:23;;;;;;;6.50;2.27;;;;;;;;;;5044601;28;20787;-44
2022/09/19 11:06:02;;;;;;;5.33;1.30;;;;;;;;;;5045485;28;20499;-45
2022/09/19 11:08:28;;;;;;;10.63;1.90;;;;;;;;;;5051472;28;20769;-48
2022/09/19 11:10:54;;;;;;;6.90;1.60;;;;;;;;;;5048812;28;20421;-45
2022/09/19 11:13:22;;;;;;;6.60;2.37;;;;;;;;;;5051574;28;20401;-45
2022/09/19 11:15:49;;;;;;;6.77;1.80;;;;;;;;;;5035607;28;20901;-44
2022/09/19 11:18:27;;;;;;;6.40;2.30;;;;;;;;;;5030936;28;20405;-45
2022/09/19 11:20:57;;;;;;;7.27;1.60;;;;;;;;;;5044793;28;20462;-47
2022/09/19 11:23:29;;;;;;;5.77;1.97;;;;;;;;;;5051832;28;20408;-45
2022/09/19 11:26:10;;;;;;;2.43;1.13;;;;;;;;;;5037259;28;20918;-46
2022/09/19 11:28:46;;;;;;;4.63;1.20;;;;;;;;;;5038560;28;20417;-48
2022/09/19 11:31:31;;;;;;;2.30;1.40;;;;;;;;;;5051825;28;20413;-47
2022/09/19 11:34:00;;;;;;;5.10;1.20;;;;;;;;;;5051415;28;20405;-45
2022/09/19 11:36:32;;;;;;;6.70;2.50;;;;;;;;;;5043196;28;20437;-44
2022/09/19 11:39:03;;;;;;;3.27;1.13;;;;;;;;;;5046227;28;20487;-44
2022/09/19 11:41:56;;;;;;;6.33;1.60;;;;;;;;;;5032031;28;20418;-45
2022/09/19 11:44:25;;;;;;;3.37;1.80;;;;;;;;;;5031716;28;20905;-44
2022/09/19 11:47:12;;;;;;;5.27;1.60;;;;;;;;;;5043612;28;21085;-44
2022/09/19 11:49:57;;;;;;;7.37;1.33;;;;;;;;;;5035646;28;20409;-48
2022/09/19 11:52:32;;;;;;;2.83;1.40;;;;;;;;;;5031407;28;20405;-48
2022/09/19 11:55:17;;;;;;;4.87;1.37;;;;;;;;;;5042107;28;20416;-44
2022/09/19 11:58:03;;;;;;;3.87;1.40;;;;;;;;;;5050838;28;20421;-44
2022/09/19 12:00:35;;;;;;;2.97;1.20;;;;;;;;;;5044444;28;20458;-45
2022/09/19 12:03:10;;;;;;;6.43;1.77;;;;;;;;;;5031062;28;20460;-44
2022/09/19 12:05:56;;;;;;;4.60;1.50;;;;;;;;;;5032099;28;20428;-44
2022/09/19 12:08:29;;;;;;;3.83;1.83;;;;;;;;;;5031178;28;20399;-46
2022/09/19 12:10:55;;;;;;;10.37;2.07;;;;;;;;;;5039389;28;20422;-46
2022/09/19 12:13:21;;;;;;;3.00;1.73;;;;;;;;;;5049345;28;20837;-46
2022/09/19 12:15:49;;;;;;;7.10;2.20;;;;;;;;;;5050486;28;20805;-46
2022/09/19 12:18:21;;;;;;;5.10;2.40;;;;;;;;;;5048770;28;20473;-46
2022/09/19 12:20:49;;;;;;;8.20;1.67;;;;;;;;;;5048803;28;20433;-49
2022/09/19 12:26:16;;;;;;;6.80;1.50;;;;;;;;;;5030531;28;20416;-49
2022/09/19 12:29:02;;;;;;;4.60;1.60;;;;;;;;;;5031947;28;20415;-50
2022/09/19 12:31:33;;;;;;;3.33;1.30;;;;;;;;;;5033444;28;20416;-47
2022/09/19 12:34:11;;;;;;;4.57;0.90;;;;;;;;;;5044512;28;20471;-51
2022/09/19 12:37:00;;;;;;;4.50;0.93;;;;;;;;;;5054271;28;20414;-51
2022/09/19 12:39:32;;;;;;;2.87;1.10;;;;;;;;;;5037524;28;20553;-50
2022/09/19 12:42:06;;;;;;;5.97;1.00;;;;;;;;;;5033831;28;20821;-49
2022/09/19 12:45:02;;;;;;;2.17;1.20;;;;;;;;;;5048404;28;20413;-48
2022/09/19 12:47:31;;;;;;;1.50;1.27;;;;;;;;;;5048503;28;20475;-47
2022/09/19 12:50:03;;;;;;;1.87;1.10;;;;;;;;;;5049418;28;20418;-47
2022/09/19 12:52:33;;;;;;;2.90;1.23;;;;;;;;;;5044233;28;20421;-48
2022/09/19 12:55:18;;;;;;;1.00;0.90;;;;;;;;;;5054040;28;20403;-47
2022/09/19 12:57:47;;;;;;;3.17;0.90;;;;;;;;;;5053415;28;20518;-48
2022/09/19 13:00:14;;;;;;;2.23;1.00;;;;;;;;;;5052251;28;20457;-47
2022/09/19 13:02:48;;;;;;;2.00;1.10;;;;;;;;;;5047334;28;20443;-47
2022/09/19 13:05:22;;;;;;;4.30;1.30;;;;;;;;;;5037381;28;20419;-47
2022/09/19 13:07:47;;;;;;;3.37;1.17;;;;;;;;;;5033584;28;20432;-47
2022/09/19 13:10:36;;;;;;;1.40;1.10;;;;;;;;;;5048797;28;20417;-46
2022/09/19 13:13:04;;;;;;;3.67;1.10;;;;;;;;;;5053743;28;20401;-46
2022/09/19 13:15:51;;;;;;;4.13;1.33;;;;;;;;;;5035507;28;20506;-47
2022/09/19 13:23:52;;;;;;;4.60;1.60;;;;;;;;;;5035581;28;20420;-47
2022/09/19 13:26:24;;;;;;;3.50;1.37;;;;;;;;;;5053674;28;20433;-48
2022/09/19 13:28:52;;;;;;;4.30;1.00;;;;;;;;;;5051408;28;20754;-47
2022/09/19 13:31:18;;;;;;;2.37;1.17;;;;;;;;;;5052700;28;20963;-47
2022/09/19 13:33:47;;;;;;;3.73;1.37;;;;;;;;;;5052390;28;20489;-46
2022/09/19 13:36:15;;;;;;;3.00;1.50;;;;;;;;;;5033027;28;20426;-47
2022/09/19 13:38:41;;;;;;;3.00;1.60;;;;;;;;;;5032871;28;20408;-47
2022/09/19 13:41:30;;;;;;;1.60;1.40;;;;;;;;;;5047516;28;20463;-46
2022/09/19 13:43:56;;;;;;;3.80;1.80;;;;;;;;;;5030211;28;20424;-46
2022/09/19 13:46:31;;;;;;;6.33;1.67;;;;;;;;;;5033337;28;20430;-46
2022/09/19 13:49:05;;;;;;;2.17;1.70;;;;;;;;;;5032703;28;20439;-46
2022/09/19 13:51:41;;;;;;;4.50;1.43;;;;;;;;;;5032705;28;20476;-46
2022/09/19 13:54:23;;;;;;;7.53;1.40;;;;;;;;;;5053013;28;20401;-48
2022/09/19 13:57:01;;;;;;;4.73;1.80;;;;;;;;;;5050381;28;20810;-46
2022/09/19 13:59:34;;;;;;;3.50;2.00;;;;;;;;;;5032139;28;20458;-46
2022/09/19 14:02:00;;;;;;;5.07;1.70;;;;;;;;;;5035617;28;20434;-46
2022/09/19 14:07:39;;;;;;;6.13;1.40;;;;;;;;;;5046811;28;20889;-46
2022/09/19 14:10:14;;;;;;;9.73;1.83;;;;;;;;;;5031807;28;20439;-46
2022/09/19 14:12:46;;;;;;;2.83;1.57;;;;;;;;;;5040193;28;20906;-46
2022/09/19 14:15:32;;;;;;;1.20;1.10;;;;;;;;;;5052650;28;20397;-46
2022/09/19 14:18:03;;;;;;;3.77;1.53;;;;;;;;;;5051696;28;20461;-46
2022/09/19 14:20:48;;;;;;;2.70;1.80;;;;;;;;;;5051489;28;20803;-46
2022/09/19 14:23:16;;;;;;;1.90;1.20;;;;;;;;;;5040979;28;20440;-46
2022/09/19 14:25:46;;;;;;;2.50;1.20;;;;;;;;;;5032397;28;20398;-46
2022/09/19 14:28:31;;;;;;;5.47;1.33;;;;;;;;;;5042322;28;20500;-48
2022/09/19 14:31:10;;;;;;;4.77;1.33;;;;;;;;;;5050193;28;20415;-46
2022/09/19 14:33:43;;;;;;;3.33;1.40;;;;;;;;;;5052166;28;20408;-47
2022/09/19 14:36:27;;;;;;;11.93;1.40;;;;;;;;;;5045947;28;20444;-47
2022/09/19 14:39:12;;;;;;;1.83;0.93;;;;;;;;;;5031658;28;20487;-47
2022/09/19 14:41:38;;;;;;;1.50;0.80;;;;;;;;;;5040999;28;20478;-47
2022/09/19 14:44:16;;;;;;;5.40;1.10;;;;;;;;;;5053161;28;20503;-47
2022/09/19 14:46:46;;;;;;;3.13;1.20;;;;;;;;;;5051307;28;20471;-47
2022/09/19 14:49:18;;;;;;;2.90;1.20;;;;;;;;;;5051177;28;20795;-47
2022/09/19 14:51:56;;;;;;;1.77;0.90;;;;;;;;;;5042045;28;20429;-47
2022/09/19 14:54:26;;;;;;;3.17;1.10;;;;;;;;;;5031227;28;20414;-48
2022/09/19 14:57:22;;;;;;;2.77;1.67;;;;;;;;;;5041196;28;20995;-49
2022/09/19 14:59:48;;;;;;;3.60;1.00;;;;;;;;;;5046456;28;20467;-47
2022/09/19 15:02:19;;;;;;;3.90;1.13;;;;;;;;;;5038836;28;20935;-46
2022/09/19 15:04:46;;;;;;;5.07;1.77;;;;;;;;;;5041454;28;20901;-48
2022/09/19 15:07:12;;;;;;;7.00;1.70;;;;;;;;;;5052238;28;20927;-47
2022/09/19 15:09:39;;;;;;;4.03;1.40;;;;;;;;;;5042749;28;20418;-46
2022/09/19 15:12:16;;;;;;;5.57;1.70;;;;;;;;;;5031200;28;20413;-46
2022/09/19 15:14:46;;;;;;;7.50;1.90;;;;;;;;;;5039702;28;20414;-47
2022/09/19 15:17:18;;;;;;;4.50;1.97;;;;;;;;;;5051517;28;20432;-46
2022/09/19 15:19:45;;;;;;;4.60;1.73;;;;;;;;;;5049448;28;20452;-46
2022/09/19 15:22:29;;;;;;;3.13;1.50;;;;;;;;;;5051158;28;20372;-46
2022/09/19 15:24:56;;;;;;;3.53;1.70;;;;;;;;;;5042302;28;20468;-45